Time;durP1;ratioP1;P1;durP2;ratioP2;P2;SDS_P1;SDS_P2;PMS_P1;PMS_P2;Temp;Humidity;BMP_temperature;BMP_pressure;BME280_temperature;BME280_humidity;BME280_pressure;Samples;Min_cycle;Max_cycle;Signal;HPM_P1;HPM_P2
2022/09/11 00:04:17;;;;;;;;;;;;;;;;;;6109305;23;19921;-94
2022/09/11 00:06:45;;;;;;;;;;;;;;;;;;6084597;23;19920;-94
2022/09/11 00:09:12;;;;;;;;;;;;;;;;;;6087041;23;19928;-94
2022/09/11 00:11:50;;;;;;;;;;;;;;;;;;6090168;23;19925;-94
2022/09/11 00:14:18;;;;;;;;;;;;;;;;;;6117748;23;20349;-94
2022/09/11 00:16:45;;;;;;;;;;;;;;;;;;6116241;23;20409;-95
2022/09/11 00:19:11;;;;;;;;;;;;;;;;;;6163773;23;20084;-94
2022/09/11 00:21:37;;;;;;;;;;;;;;;;;;6172979;23;19946;-94
2022/09/11 00:24:03;;;;;;;;;;;;;;;;;;6177387;23;20401;-94
2022/09/11 00:26:32;;;;;;;;;;;;;;;;;;6174003;22;20334;-96
2022/09/11 00:29:02;;;;;;;;;;;;;;;;;;6177623;23;20003;-94
2022/09/11 00:31:32;;;;;;;;;;;;;;;;;;6202401;23;19923;-94
2022/09/11 00:33:58;;;;;;;;;;;;;;;;;;6202049;23;19951;-95
2022/09/11 00:36:26;;;;;;;;;;;;;;;;;;6202779;23;20371;-93
2022/09/11 00:38:52;;;;;;;;;;;;;;;;;;6200158;23;19920;-93
2022/09/11 00:41:18;;;;;;;;;;;;;;;;;;6203186;23;19919;-94
2022/09/11 00:43:47;;;;;;;;;;;;;;;;;;6200771;23;19969;-94
2022/09/11 00:46:13;;;;;;;;;;;;;;;;;;6206252;23;19959;-94
2022/09/11 00:48:39;;;;;;;;;;;;;;;;;;6201633;23;20248;-94
2022/09/11 00:51:05;;;;;;;;;;;;;;;;;;6228475;23;19995;-94
2022/09/11 00:53:34;;;;;;;;;;;;;;;;;;6201881;23;20225;-94
2022/09/11 00:56:02;;;;;;;;;;;;;;;;;;6203372;23;20263;-92
2022/09/11 00:58:28;;;;;;;;;;;;;;;;;;6199523;23;19923;-94
2022/09/11 01:00:57;;;;;;;;;;;;;;;;;;6204599;23;19938;-94
2022/09/11 01:03:26;;;;;;;;;;;;;;;;;;6227016;23;19977;-93
2022/09/11 01:05:54;;;;;;;;;;;;;;;;;;6199685;23;19919;-93
2022/09/11 01:08:21;;;;;;;;;;;;;;;;;;6204284;23;19920;-94
2022/09/11 01:10:47;;;;;;;;;;;;;;;;;;6201506;23;19924;-94
2022/09/11 01:13:16;;;;;;;;;;;;;;;;;;6203640;23;20323;-94
2022/09/11 01:15:42;;;;;;;;;;;;;;;;;;6201669;23;19915;-93
2022/09/11 01:18:08;;;;;;;;;;;;;;;;;;6202901;23;20282;-95
2022/09/11 01:20:35;;;;;;;;;;;;;;;;;;6202923;23;19974;-94
2022/09/11 01:23:01;;;;;;;;;;;;;;;;;;6226573;23;20081;-94
2022/09/11 01:25:27;;;;;;;;;;;;;;;;;;6206323;23;19973;-93
2022/09/11 01:27:53;;;;;;;;;;;;;;;;;;6213609;22;19923;-94
2022/09/11 01:30:19;;;;;;;;;;;;;;;;;;6235698;22;19927;-94
2022/09/11 01:32:45;;;;;;;;;;;;;;;;;;6231779;22;20318;-93
2022/09/11 01:35:11;;;;;;;;;;;;;;;;;;6233304;22;19926;-94
2022/09/11 01:37:40;;;;;;;;;;;;;;;;;;6224987;22;19974;-94
2022/09/11 01:40:11;;;;;;;;;;;;;;;;;;6261501;22;19919;-93
2022/09/11 01:42:38;;;;;;;;;;;;;;;;;;6232322;22;19919;-94
2022/09/11 01:45:04;;;;;;;;;;;;;;;;;;6237654;22;19938;-95
2022/09/11 01:47:30;;;;;;;;;;;;;;;;;;6231265;22;19915;-93
2022/09/11 01:49:56;;;;;;;;;;;;;;;;;;6237992;22;19930;-94
2022/09/11 01:52:22;;;;;;;;;;;;;;;;;;6236173;22;20336;-94
2022/09/11 01:54:50;;;;;;;;;;;;;;;;;;6234711;22;20288;-95
2022/09/11 01:57:18;;;;;;;;;;;;;;;;;;6236520;22;19919;-95
2022/09/11 01:59:44;;;;;;;;;;;;;;;;;;6232607;22;20236;-93
2022/09/11 02:02:13;;;;;;;;;;;;;;;;;;6234468;22;20328;-93
2022/09/11 02:04:39;;;;;;;;;;;;;;;;;;6260781;22;19919;-93
2022/09/11 02:07:05;;;;;;;;;;;;;;;;;;6235856;22;19923;-93
2022/09/11 02:09:32;;;;;;;;;;;;;;;;;;6232928;22;19970;-94
2022/09/11 02:11:58;;;;;;;;;;;;;;;;;;6234404;22;19984;-94
2022/09/11 02:14:24;;;;;;;;;;;;;;;;;;6235374;22;19922;-94
2022/09/11 02:16:50;;;;;;;;;;;;;;;;;;6231229;22;19919;-93
2022/09/11 02:19:16;;;;;;;;;;;;;;;;;;6233364;22;20278;-94
2022/09/11 02:21:42;;;;;;;;;;;;;;;;;;6231829;22;19942;-93
2022/09/11 02:24:08;;;;;;;;;;;;;;;;;;6232692;22;20336;-93
2022/09/11 02:26:34;;;;;;;;;;;;;;;;;;6231908;22;19915;-93
2022/09/11 02:29:00;;;;;;;;;;;;;;;;;;6234016;22;19920;-93
2022/09/11 02:31:26;;;;;;;;;;;;;;;;;;6233619;22;19927;-93
2022/09/11 02:33:52;;;;;;;;;;;;;;;;;;6230889;22;19919;-93
2022/09/11 02:36:18;;;;;;;;;;;;;;;;;;6232157;22;19920;-94
2022/09/11 02:38:44;;;;;;;;;;;;;;;;;;6255803;22;19919;-93
2022/09/11 02:41:18;;;;;;;;;;;;;;;;;;6260971;22;19919;-93
2022/09/11 02:43:48;;;;;;;;;;;;;;;;;;6230722;22;19982;-93
2022/09/11 02:46:17;;;;;;;;;;;;;;;;;;6234289;22;19916;-93
2022/09/11 02:48:43;;;;;;;;;;;;;;;;;;6230829;22;19919;-94
2022/09/11 02:51:09;;;;;;;;;;;;;;;;;;6234914;22;19989;-94
2022/09/11 02:53:42;;;;;;;;;;;;;;;;;;6235136;22;19919;-94
2022/09/11 02:56:08;;;;;;;;;;;;;;;;;;6235215;22;19950;-93
2022/09/11 02:58:34;;;;;;;;;;;;;;;;;;6232646;22;20334;-94
2022/09/11 03:01:03;;;;;;;;;;;;;;;;;;6257644;22;19994;-93
2022/09/11 03:03:32;;;;;;;;;;;;;;;;;;6231577;22;20210;-94
2022/09/11 03:05:59;;;;;;;;;;;;;;;;;;6260381;22;19919;-94
2022/09/11 03:08:25;;;;;;;;;;;;;;;;;;6234094;22;19972;-94
2022/09/11 03:10:51;;;;;;;;;;;;;;;;;;6232343;22;20299;-94
2022/09/11 03:13:17;;;;;;;;;;;;;;;;;;6231817;22;19919;-93
2022/09/11 03:15:43;;;;;;;;;;;;;;;;;;6231082;22;19925;-94
2022/09/11 03:18:10;;;;;;;;;;;;;;;;;;6231277;22;19916;-94
2022/09/11 03:20:37;;;;;;;;;;;;;;;;;;6233235;22;20010;-94
2022/09/11 03:23:09;;;;;;;;;;;;;;;;;;6232791;22;19981;-93
2022/09/11 03:25:35;;;;;;;;;;;;;;;;;;6232326;22;19934;-94
2022/09/11 03:28:04;;;;;;;;;;;;;;;;;;6235336;22;19929;-93
2022/09/11 03:30:30;;;;;;;;;;;;;;;;;;6232913;22;20279;-95
2022/09/11 03:32:57;;;;;;;;;;;;;;;;;;6232618;22;20320;-94
2022/09/11 03:35:26;;;;;;;;;;;;;;;;;;6235800;22;19921;-94
2022/09/11 03:37:54;;;;;;;;;;;;;;;;;;6232296;22;19923;-94
2022/09/11 03:40:20;;;;;;;;;;;;;;;;;;6235717;22;19919;-93
2022/09/11 03:42:48;;;;;;;;;;;;;;;;;;6231877;22;19923;-94
2022/09/11 03:45:14;;;;;;;;;;;;;;;;;;6235033;22;19919;-93
2022/09/11 03:47:40;;;;;;;;;;;;;;;;;;6229662;22;19934;-94
2022/09/11 03:50:06;;;;;;;;;;;;;;;;;;6234126;22;19927;-94
2022/09/11 03:52:35;;;;;;;;;;;;;;;;;;6231859;22;20320;-93
2022/09/11 03:55:01;;;;;;;;;;;;;;;;;;6235015;22;19919;-93
2022/09/11 03:57:27;;;;;;;;;;;;;;;;;;6236600;22;19998;-93
2022/09/11 03:59:54;;;;;;;;;;;;;;;;;;6232706;22;19965;-94
2022/09/11 04:02:22;;;;;;;;;;;;;;;;;;6231731;22;19919;-93
2022/09/11 04:04:48;;;;;;;;;;;;;;;;;;6232365;22;20515;-94
2022/09/11 04:07:14;;;;;;;;;;;;;;;;;;6233994;22;20407;-94
2022/09/11 04:09:40;;;;;;;;;;;;;;;;;;6232860;22;19964;-94
2022/09/11 04:12:06;;;;;;;;;;;;;;;;;;6231980;22;19962;-93
2022/09/11 04:14:33;;;;;;;;;;;;;;;;;;6233236;22;19927;-93
2022/09/11 04:16:59;;;;;;;;;;;;;;;;;;6233474;22;20390;-94
2022/09/11 04:19:25;;;;;;;;;;;;;;;;;;6234256;22;19924;-93
2022/09/11 04:21:51;;;;;;;;;;;;;;;;;;6231370;22;19984;-94
2022/09/11 04:24:17;;;;;;;;;;;;;;;;;;6236648;22;20355;-93
2022/09/11 04:26:44;;;;;;;;;;;;;;;;;;6258304;22;20010;-94
2022/09/11 04:29:10;;;;;;;;;;;;;;;;;;6259826;22;19924;-94
2022/09/11 04:31:39;;;;;;;;;;;;;;;;;;6228230;22;20222;-93
2022/09/11 04:34:06;;;;;;;;;;;;;;;;;;6237412;22;19994;-94
2022/09/11 04:36:32;;;;;;;;;;;;;;;;;;6231700;22;20269;-93
2022/09/11 04:38:59;;;;;;;;;;;;;;;;;;6234173;22;19973;-95
2022/09/11 04:41:25;;;;;;;;;;;;;;;;;;6257030;22;20280;-93
2022/09/11 04:43:51;;;;;;;;;;;;;;;;;;6255037;22;19919;-94
2022/09/11 04:46:17;;;;;;;;;;;;;;;;;;6256680;22;19919;-95
2022/09/11 04:48:46;;;;;;;;;;;;;;;;;;6231938;22;20022;-94
2022/09/11 04:51:12;;;;;;;;;;;;;;;;;;6234895;22;19919;-94
2022/09/11 04:53:38;;;;;;;;;;;;;;;;;;6260368;22;19926;-93
2022/09/11 04:56:07;;;;;;;;;;;;;;;;;;6233419;22;19973;-94
2022/09/11 04:58:33;;;;;;;;;;;;;;;;;;6232192;22;19926;-93
2022/09/11 05:00:59;;;;;;;;;;;;;;;;;;6234728;22;20319;-93
2022/09/11 05:03:25;;;;;;;;;;;;;;;;;;6232684;22;19930;-94
2022/09/11 05:05:51;;;;;;;;;;;;;;;;;;6231554;22;19919;-93
2022/09/11 05:08:21;;;;;;;;;;;;;;;;;;6237066;22;19915;-94
2022/09/11 05:10:48;;;;;;;;;;;;;;;;;;6232527;22;19923;-94
2022/09/11 05:13:15;;;;;;;;;;;;;;;;;;6235536;22;19919;-93
2022/09/11 05:15:42;;;;;;;;;;;;;;;;;;6232520;22;20388;-95
2022/09/11 05:18:08;;;;;;;;;;;;;;;;;;6237373;22;20322;-94
2022/09/11 05:20:34;;;;;;;;;;;;;;;;;;6234523;22;20232;-93
2022/09/11 05:23:00;;;;;;;;;;;;;;;;;;6238756;22;19915;-93
2022/09/11 05:25:26;;;;;;;;;;;;;;;;;;6238015;22;20368;-93
2022/09/11 05:27:52;;;;;;;;;;;;;;;;;;6235490;22;19923;-93
2022/09/11 05:30:18;;;;;;;;;;;;;;;;;;6238695;22;20411;-93
2022/09/11 05:32:44;;;;;;;;;;;;;;;;;;6234469;22;19919;-94
2022/09/11 05:35:20;;;;;;;;;;;;;;;;;;6262855;22;19926;-93
2022/09/11 05:37:46;;;;;;;;;;;;;;;;;;6256318;22;20348;-94
2022/09/11 05:40:12;;;;;;;;;;;;;;;;;;6237010;22;20351;-93
2022/09/11 05:42:37;;;;;;;;;;;;;;;;;;6231023;22;20244;-92
2022/09/11 05:45:04;;;;;;;;;;;;;;;;;;6235512;22;19923;-92
2022/09/11 05:47:30;;;;;;;;;;;;;;;;;;6232796;22;19950;-93
2022/09/11 05:49:56;;;;;;;;;;;;;;;;;;6234262;22;19926;-93
2022/09/11 05:52:23;;;;;;;;;;;;;;;;;;6232904;22;20284;-94
2022/09/11 05:54:50;;;;;;;;;;;;;;;;;;6232768;22;19924;-94
2022/09/11 05:57:18;;;;;;;;;;;;;;;;;;6233908;22;20248;-92
2022/09/11 05:59:51;;;;;;;;;;;;;;;;;;6232783;22;20385;-94
2022/09/11 06:02:17;;;;;;;;;;;;;;;;;;6237609;22;19919;-93
2022/09/11 06:04:44;;;;;;;;;;;;;;;;;;6233340;22;19915;-93
2022/09/11 06:07:10;;;;;;;;;;;;;;;;;;6233500;22;19919;-93
2022/09/11 06:09:36;;;;;;;;;;;;;;;;;;6230847;22;20545;-91
2022/09/11 06:12:02;;;;;;;;;;;;;;;;;;6233731;22;19923;-92
2022/09/11 06:14:31;;;;;;;;;;;;;;;;;;6260698;22;19915;-94
2022/09/11 06:16:57;;;;;;;;;;;;;;;;;;6234636;22;20338;-94
2022/09/11 06:19:23;;;;;;;;;;;;;;;;;;6234193;22;20258;-94
2022/09/11 06:21:51;;;;;;;;;;;;;;;;;;6231118;22;20822;-93
2022/09/11 06:24:18;;;;;;;;;;;;;;;;;;6233075;22;19916;-92
2022/09/11 06:26:45;;;;;;;;;;;;;;;;;;6231968;22;19961;-93
2022/09/11 06:29:13;;;;;;;;;;;;;;;;;;6259057;22;20391;-93
2022/09/11 06:31:40;;;;;;;;;;;;;;;;;;6231231;22;19988;-92
2022/09/11 06:34:06;;;;;;;;;;;;;;;;;;6234216;22;19984;-92
2022/09/11 06:36:32;;;;;;;;;;;;;;;;;;6232653;22;19989;-94
2022/09/11 06:38:58;;;;;;;;;;;;;;;;;;6231785;22;20328;-94
2022/09/11 06:41:24;;;;;;;;;;;;;;;;;;6232267;22;20450;-94
2022/09/11 06:43:53;;;;;;;;;;;;;;;;;;6231201;22;19993;-93
2022/09/11 06:46:19;;;;;;;;;;;;;;;;;;6232396;22;19922;-94
2022/09/11 06:48:45;;;;;;;;;;;;;;;;;;6259743;22;19942;-93
2022/09/11 06:51:11;;;;;;;;;;;;;;;;;;6259773;22;20332;-94
2022/09/11 06:53:37;;;;;;;;;;;;;;;;;;6230916;22;19919;-93
2022/09/11 06:56:03;;;;;;;;;;;;;;;;;;6235888;22;19926;-93
2022/09/11 06:58:38;;;;;;;;;;;;;;;;;;6230738;22;20368;-94
2022/09/11 07:01:04;;;;;;;;;;;;;;;;;;6234857;22;19919;-93
2022/09/11 07:03:30;;;;;;;;;;;;;;;;;;6229555;22;20225;-94
2022/09/11 07:05:56;;;;;;;;;;;;;;;;;;6235580;22;19919;-95
2022/09/11 07:08:22;;;;;;;;;;;;;;;;;;6233192;22;19926;-93
2022/09/11 07:10:48;;;;;;;;;;;;;;;;;;6230632;22;20234;-93
2022/09/11 07:13:14;;;;;;;;;;;;;;;;;;6232805;22;19919;-94
2022/09/11 07:15:41;;;;;;;;;;;;;;;;;;6230448;22;20041;-93
2022/09/11 07:18:07;;;;;;;;;;;;;;;;;;6231365;22;20247;-93
2022/09/11 07:20:33;;;;;;;;;;;;;;;;;;6231401;22;20299;-94
2022/09/11 07:23:02;;;;;;;;;;;;;;;;;;6232041;22;19919;-93
2022/09/11 07:25:31;;;;;;;;;;;;;;;;;;6234283;22;19955;-94
2022/09/11 07:27:57;;;;;;;;;;;;;;;;;;6234886;22;20015;-94
2022/09/11 07:30:23;;;;;;;;;;;;;;;;;;6257969;22;19923;-94
2022/09/11 07:32:55;;;;;;;;;;;;;;;;;;6230571;22;20032;-94
2022/09/11 07:35:21;;;;;;;;;;;;;;;;;;6232495;22;19969;-93
2022/09/11 07:37:47;;;;;;;;;;;;;;;;;;6254519;22;19919;-93
2022/09/11 07:40:13;;;;;;;;;;;;;;;;;;6232844;22;19921;-94
2022/09/11 07:42:45;;;;;;;;;;;;;;;;;;6231463;22;19989;-93
2022/09/11 07:45:11;;;;;;;;;;;;;;;;;;6233076;22;19949;-93
2022/09/11 07:47:37;;;;;;;;;;;;;;;;;;6229505;22;19938;-93
2022/09/11 07:50:06;;;;;;;;;;;;;;;;;;6231994;22;19973;-93
2022/09/11 07:52:32;;;;;;;;;;;;;;;;;;6231225;22;19919;-94
2022/09/11 07:55:00;;;;;;;;;;;;;;;;;;6233759;22;19942;-93
2022/09/11 07:57:26;;;;;;;;;;;;;;;;;;6234566;22;19920;-94
2022/09/11 08:00:05;;;;;;;;;;;;;;;;;;;;;
2022/09/11 08:02:34;;;;;;;;;;;;;;;;;;6255933;22;19919;-94
2022/09/11 08:05:01;;;;;;;;;;;;;;;;;;6231633;22;19955;-95
2022/09/11 08:07:27;;;;;;;;;;;;;;;;;;6233481;22;19915;-93
2022/09/11 08:09:56;;;;;;;;;;;;;;;;;;6230402;22;19998;-94
2022/09/11 08:12:22;;;;;;;;;;;;;;;;;;6227342;22;20663;-94
2022/09/11 08:14:48;;;;;;;;;;;;;;;;;;6227904;22;20403;-93
2022/09/11 08:17:17;;;;;;;;;;;;;;;;;;6235682;22;19920;-95
2022/09/11 08:19:46;;;;;;;;;;;;;;;;;;6232859;22;19926;-94
2022/09/11 08:22:12;;;;;;;;;;;;;;;;;;6260585;22;19965;-95
2022/09/11 08:24:38;;;;;;;;;;;;;;;;;;6236828;22;19934;-95
2022/09/11 08:27:05;;;;;;;;;;;;;;;;;;6232194;22;19927;-94
2022/09/11 08:29:31;;;;;;;;;;;;;;;;;;6234740;22;19919;-94
2022/09/11 08:32:12;;;;;;;;;;;;;;;;;;6240588;22;19923;-95
2022/09/11 08:35:00;;;;;;;;;;;;;;;;;;;;;
2022/09/11 08:37:35;;;;;;;;;;;;;;;;;;6259311;22;20034;-93
2022/09/11 08:43:08;;;;;;;;;;;;;;;;;;6271540;22;19915;-95
2022/09/11 08:45:50;;;;;;;;;;;;;;;;;;;;;
2022/09/11 08:48:39;;;;;;;;;;;;;;;;;;6254285;22;19919;-95
2022/09/11 08:54:16;;;;;;;;;;;;;;;;;;;;;
2022/09/11 08:57:01;;;;;;;;;;;;;;;;;;6238988;23;20346;-95
2022/09/11 08:59:53;;;;;;;;;;;;;;;;;;;;;
2022/09/11 09:02:26;;;;;;;;;;;;;;;;;;6201414;23;20343;-85
2022/09/11 09:04:51;;;;;;;;;;;;;;;;;;6199037;23;20477;-86
2022/09/11 09:07:17;;;;;;;;;;;;;;;;;;6178582;23;19916;-84
2022/09/11 09:09:43;;;;;;;;;;;;;;;;;;6198400;23;20305;-84
2022/09/11 09:12:09;;;;;;;;;;;;;;;;;;6174748;23;20022;-84
2022/09/11 09:14:35;;;;;;;;;;;;;;;;;;6200055;22;20253;-84
2022/09/11 09:17:01;;;;;;;;;;;;;;;;;;6234381;22;19919;-84
2022/09/11 09:19:27;;;;;;;;;;;;;;;;;;6260559;22;19949;-84
2022/09/11 09:21:54;;;;;;;;;;;;;;;;;;6257397;22;19922;-83
2022/09/11 09:24:20;;;;;;;;;;;;;;;;;;6232195;22;19926;-84
2022/09/11 09:26:46;;;;;;;;;;;;;;;;;;6256052;22;19929;-83
2022/09/11 09:29:12;;;;;;;;;;;;;;;;;;6260081;22;20196;-84
2022/09/11 09:31:40;;;;;;;;;;;;;;;;;;6260207;22;19923;-84
2022/09/11 09:34:08;;;;;;;;;;;;;;;;;;6261175;22;19938;-84
2022/09/11 09:36:34;;;;;;;;;;;;;;;;;;6251072;22;19919;-84
2022/09/11 09:39:00;;;;;;;;;;;;;;;;;;6258845;22;20034;-84
2022/09/11 09:41:26;;;;;;;;;;;;;;;;;;6263647;22;19923;-84
2022/09/11 09:43:52;;;;;;;;;;;;;;;;;;6257540;22;20410;-84
2022/09/11 09:46:18;;;;;;;;;;;;;;;;;;6256333;22;20014;-84
2022/09/11 09:48:44;;;;;;;;;;;;;;;;;;6261310;22;20260;-84
2022/09/11 09:51:10;;;;;;;;;;;;;;;;;;6261083;22;19929;-84
2022/09/11 09:53:36;;;;;;;;;;;;;;;;;;6254609;22;19973;-84
2022/09/11 09:56:03;;;;;;;;;;;;;;;;;;6258503;22;19982;-85
2022/09/11 09:58:32;;;;;;;;;;;;;;;;;;6257987;22;20331;-84
2022/09/11 10:00:58;;;;;;;;;;;;;;;;;;6231562;22;19915;-84
2022/09/11 10:03:24;;;;;;;;;;;;;;;;;;6259733;22;20002;-84
2022/09/11 10:05:50;;;;;;;;;;;;;;;;;;6255191;22;19949;-85
2022/09/11 10:08:16;;;;;;;;;;;;;;;;;;6265992;22;19919;-85
2022/09/11 10:10:42;;;;;;;;;;;;;;;;;;6257606;22;19977;-85
2022/09/11 10:13:08;;;;;;;;;;;;;;;;;;6263537;22;19919;-85
2022/09/11 10:15:36;;;;;;;;;;;;;;;;;;6260264;22;19915;-85
2022/09/11 10:18:02;;;;;;;;;;;;;;;;;;6261285;22;19951;-85
2022/09/11 10:20:31;;;;;;;;;;;;;;;;;;6264313;22;20369;-85
2022/09/11 10:22:57;;;;;;;;;;;;;;;;;;6260223;22;19919;-85
2022/09/11 10:25:26;;;;;;;;;;;;;;;;;;6235004;22;20677;-85
2022/09/11 10:27:52;;;;;;;;;;;;;;;;;;6236561;22;19924;-85
2022/09/11 10:30:18;;;;;;;;;;;;;;;;;;6270183;22;19930;-85
2022/09/11 10:32:44;;;;;;;;;;;;;;;;;;6266885;22;20337;-85
2022/09/11 10:35:10;;;;;;;;;;;;;;;;;;6242356;22;19919;-85
2022/09/11 10:37:38;;;;;;;;;;;;;;;;;;6266482;22;19918;-85
2022/09/11 10:40:04;;;;;;;;;;;;;;;;;;6269620;22;19922;-85
2022/09/11 10:42:30;;;;;;;;;;;;;;;;;;6295041;22;19926;-85
2022/09/11 10:44:56;;;;;;;;;;;;;;;;;;6242190;22;19918;-85
2022/09/11 10:47:22;;;;;;;;;;;;;;;;;;6243638;22;19983;-85
2022/09/11 10:49:48;;;;;;;;;;;;;;;;;;6242536;22;19934;-85
2022/09/11 10:52:14;;;;;;;;;;;;;;;;;;6269703;22;19926;-85
2022/09/11 10:54:40;;;;;;;;;;;;;;;;;;6266958;22;19915;-85
2022/09/11 10:57:06;;;;;;;;;;;;;;;;;;6269240;22;19968;-85
2022/09/11 10:59:33;;;;;;;;;;;;;;;;;;6266965;22;19950;-84
2022/09/11 11:01:59;;;;;;;;;;;;;;;;;;6269112;22;19919;-85
2022/09/11 11:04:25;;;;;;;;;;;;;;;;;;6269456;22;20251;-85
2022/09/11 11:06:51;;;;;;;;;;;;;;;;;;6241889;22;19959;-85
2022/09/11 11:09:17;;;;;;;;;;;;;;;;;;6242811;22;20225;-85
2022/09/11 11:11:45;;;;;;;;;;;;;;;;;;6240683;22;20347;-85
2022/09/11 11:14:12;;;;;;;;;;;;;;;;;;6266134;22;20301;-85
2022/09/11 11:16:41;;;;;;;;;;;;;;;;;;6265540;22;20251;-85
2022/09/11 11:19:07;;;;;;;;;;;;;;;;;;6268168;22;19964;-85
2022/09/11 11:21:33;;;;;;;;;;;;;;;;;;6241858;22;19918;-85
2022/09/11 11:23:59;;;;;;;;;;;;;;;;;;6267141;22;19958;-85
2022/09/11 11:26:26;;;;;;;;;;;;;;;;;;6267852;22;19987;-85
2022/09/11 11:28:53;;;;;;;;;;;;;;;;;;6269491;22;19919;-85
2022/09/11 11:31:19;;;;;;;;;;;;;;;;;;6243680;22;20345;-85
2022/09/11 11:33:45;;;;;;;;;;;;;;;;;;6236445;22;19919;-85
2022/09/11 11:36:14;;;;;;;;;;;;;;;;;;6269632;22;20224;-85
2022/09/11 11:38:40;;;;;;;;;;;;;;;;;;6265420;22;19926;-86
2022/09/11 11:41:06;;;;;;;;;;;;;;;;;;6269998;22;19918;-85
2022/09/11 11:43:33;;;;;;;;;;;;;;;;;;6268019;22;19946;-85
2022/09/11 11:46:01;;;;;;;;;;;;;;;;;;6242735;22;20295;-86
2022/09/11 11:48:28;;;;;;;;;;;;;;;;;;6243901;22;19915;-84
2022/09/11 11:50:54;;;;;;;;;;;;;;;;;;6266756;22;19980;-84
2022/09/11 11:53:20;;;;;;;;;;;;;;;;;;6269117;22;20286;-84
2022/09/11 11:55:46;;;;;;;;;;;;;;;;;;6267366;22;19919;-84
2022/09/11 11:58:13;;;;;;;;;;;;;;;;;;6243354;22;19919;-84
2022/09/11 12:00:39;;;;;;;;;;;;;;;;;;6238844;22;20330;-84
2022/09/11 12:03:06;;;;;;;;;;;;;;;;;;6234510;22;20213;-84
2022/09/11 12:05:32;;;;;;;;;;;;;;;;;;6236781;22;19934;-84
2022/09/11 12:07:58;;;;;;;;;;;;;;;;;;6236102;22;19919;-84
2022/09/11 12:10:24;;;;;;;;;;;;;;;;;;6238620;22;19992;-84
2022/09/11 12:12:50;;;;;;;;;;;;;;;;;;6257473;22;19926;-85
2022/09/11 12:15:16;;;;;;;;;;;;;;;;;;6237845;22;19918;-84
2022/09/11 12:17:42;;;;;;;;;;;;;;;;;;6259711;22;19919;-84
2022/09/11 12:20:08;;;;;;;;;;;;;;;;;;6235158;22;19919;-86
2022/09/11 12:22:37;;;;;;;;;;;;;;;;;;6232374;22;20421;-85
2022/09/11 12:25:03;;;;;;;;;;;;;;;;;;6262073;22;19914;-85
2022/09/11 12:27:30;;;;;;;;;;;;;;;;;;6231576;22;19918;-85
2022/09/11 12:29:58;;;;;;;;;;;;;;;;;;6231630;22;20828;-85
2022/09/11 12:32:24;;;;;;;;;;;;;;;;;;6231769;22;20286;-86
2022/09/11 12:34:50;;;;;;;;;;;;;;;;;;6254345;22;19923;-87
2022/09/11 12:37:16;;;;;;;;;;;;;;;;;;6258544;22;19954;-88
2022/09/11 12:39:42;;;;;;;;;;;;;;;;;;6257629;22;19965;-85
2022/09/11 12:42:09;;;;;;;;;;;;;;;;;;6257171;22;20253;-87
2022/09/11 12:44:35;;;;;;;;;;;;;;;;;;6258539;22;19919;-84
2022/09/11 12:47:01;;;;;;;;;;;;;;;;;;6236598;22;20629;-85
2022/09/11 12:49:27;;;;;;;;;;;;;;;;;;6261639;22;19950;-85
2022/09/11 12:51:53;;;;;;;;;;;;;;;;;;6232632;22;19934;-86
2022/09/11 12:54:19;;;;;;;;;;;;;;;;;;6233179;22;19919;-86
2022/09/11 12:56:45;;;;;;;;;;;;;;;;;;6258297;22;19923;-85
2022/09/11 12:59:12;;;;;;;;;;;;;;;;;;6258759;22;19989;-87
2022/09/11 13:01:38;;;;;;;;;;;;;;;;;;6257098;22;20361;-85
2022/09/11 13:04:04;;;;;;;;;;;;;;;;;;6233946;22;20248;-87
2022/09/11 13:06:30;;;;;;;;;;;;;;;;;;6255711;22;19918;-84
2022/09/11 13:08:59;;;;;;;;;;;;;;;;;;6232236;22;19949;-87
2022/09/11 13:11:25;;;;;;;;;;;;;;;;;;6259176;22;19923;-86
2022/09/11 13:13:51;;;;;;;;;;;;;;;;;;6254643;22;19919;-87
2022/09/11 13:16:17;;;;;;;;;;;;;;;;;;6234821;22;20322;-87
2022/09/11 13:18:44;;;;;;;;;;;;;;;;;;6258387;22;19987;-87
2022/09/11 13:21:10;;;;;;;;;;;;;;;;;;6230682;22;19918;-87
2022/09/11 13:23:36;;;;;;;;;;;;;;;;;;6237006;22;20458;-87
2022/09/11 13:26:03;;;;;;;;;;;;;;;;;;6264670;22;19919;-87
2022/09/11 13:28:30;;;;;;;;;;;;;;;;;;6262342;22;19919;-88
2022/09/11 13:30:56;;;;;;;;;;;;;;;;;;6263642;22;19934;-88
2022/09/11 13:33:22;;;;;;;;;;;;;;;;;;6236554;22;19915;-85
2022/09/11 13:35:48;;;;;;;;;;;;;;;;;;6233676;22;19925;-87
2022/09/11 13:38:15;;;;;;;;;;;;;;;;;;6238402;22;19918;-88
2022/09/11 13:40:41;;;;;;;;;;;;;;;;;;6233690;22;20297;-87
2022/09/11 13:43:07;;;;;;;;;;;;;;;;;;6234190;22;19923;-87
2022/09/11 13:45:36;;;;;;;;;;;;;;;;;;6232912;22;19994;-89
2022/09/11 13:48:01;;;;;;;;;;;;;;;;;;6240369;22;20001;-87
2022/09/11 13:50:27;;;;;;;;;;;;;;;;;;6287803;22;20398;-87
2022/09/11 13:52:53;;;;;;;;;;;;;;;;;;6258205;22;19918;-88
2022/09/11 13:55:19;;;;;;;;;;;;;;;;;;6261094;22;19918;-87
2022/09/11 13:57:45;;;;;;;;;;;;;;;;;;6261214;22;19925;-87
2022/09/11 14:00:11;;;;;;;;;;;;;;;;;;6235968;22;20354;-87
2022/09/11 14:02:39;;;;;;;;;;;;;;;;;;6257834;22;19980;-87
2022/09/11 14:05:05;;;;;;;;;;;;;;;;;;6262150;22;19921;-87
2022/09/11 14:07:31;;;;;;;;;;;;;;;;;;6260068;22;20017;-87
2022/09/11 14:09:58;;;;;;;;;;;;;;;;;;6259823;22;20480;-86
2022/09/11 14:12:24;;;;;;;;;;;;;;;;;;6231596;22;20708;-86
2022/09/11 14:14:50;;;;;;;;;;;;;;;;;;6224458;22;20013;-86
2022/09/11 14:17:16;;;;;;;;;;;;;;;;;;6256966;22;20263;-87
2022/09/11 14:19:42;;;;;;;;;;;;;;;;;;6257130;22;19922;-87
2022/09/11 14:22:09;;;;;;;;;;;;;;;;;;6258316;22;19919;-88
2022/09/11 14:24:37;;;;;;;;;;;;;;;;;;6255632;22;20075;-89
2022/09/11 14:27:03;;;;;;;;;;;;;;;;;;6233521;22;20013;-87
2022/09/11 14:29:32;;;;;;;;;;;;;;;;;;6258199;22;20430;-87
2022/09/11 14:31:58;;;;;;;;;;;;;;;;;;6230361;22;19997;-87
2022/09/11 14:34:24;;;;;;;;;;;;;;;;;;6263341;22;20013;-88
2022/09/11 14:36:50;;;;;;;;;;;;;;;;;;6254767;22;19919;-87
2022/09/11 14:39:16;;;;;;;;;;;;;;;;;;6234742;22;19930;-87
2022/09/11 14:41:42;;;;;;;;;;;;;;;;;;6258901;22;20728;-88
2022/09/11 14:44:08;;;;;;;;;;;;;;;;;;6287550;22;19915;-88
2022/09/11 14:46:35;;;;;;;;;;;;;;;;;;6255270;22;19942;-87
2022/09/11 14:49:01;;;;;;;;;;;;;;;;;;6259645;22;19925;-88
2022/09/11 14:51:27;;;;;;;;;;;;;;;;;;6260091;22;19980;-87
2022/09/11 14:53:54;;;;;;;;;;;;;;;;;;6289112;22;19919;-87
2022/09/11 14:56:20;;;;;;;;;;;;;;;;;;6263982;22;19945;-87
2022/09/11 14:58:47;;;;;;;;;;;;;;;;;;6259050;22;19997;-88
2022/09/11 15:01:14;;;;;;;;;;;;;;;;;;6288809;22;20003;-87
2022/09/11 15:03:40;;;;;;;;;;;;;;;;;;6258028;22;19919;-87
2022/09/11 15:06:08;;;;;;;;;;;;;;;;;;6261839;22;20013;-88
2022/09/11 15:08:34;;;;;;;;;;;;;;;;;;6236431;22;20244;-87
2022/09/11 15:11:00;;;;;;;;;;;;;;;;;;6235871;22;19923;-87
2022/09/11 15:13:26;;;;;;;;;;;;;;;;;;6256872;22;20299;-87
2022/09/11 15:15:52;;;;;;;;;;;;;;;;;;6255730;22;19918;-87
2022/09/11 15:18:18;;;;;;;;;;;;;;;;;;6259657;22;20213;-87
2022/09/11 15:20:44;;;;;;;;;;;;;;;;;;6255027;22;19994;-87
2022/09/11 15:23:10;;;;;;;;;;;;;;;;;;6259253;22;20010;-87
2022/09/11 15:25:36;;;;;;;;;;;;;;;;;;6257296;22;19919;-86
2022/09/11 15:28:02;;;;;;;;;;;;;;;;;;6261152;22;19933;-87
2022/09/11 15:30:28;;;;;;;;;;;;;;;;;;6258620;22;19923;-87
2022/09/11 15:32:54;;;;;;;;;;;;;;;;;;6259332;22;20311;-86
2022/09/11 15:35:22;;;;;;;;;;;;;;;;;;6261058;22;20342;-88
2022/09/11 15:37:48;;;;;;;;;;;;;;;;;;6259721;22;20335;-85
2022/09/11 15:40:14;;;;;;;;;;;;;;;;;;6237703;22;19940;-87
2022/09/11 15:42:40;;;;;;;;;;;;;;;;;;6260985;22;19919;-86
2022/09/11 15:45:06;;;;;;;;;;;;;;;;;;6261151;22;20347;-86
2022/09/11 15:47:32;;;;;;;;;;;;;;;;;;6257666;22;19918;-86
2022/09/11 15:49:59;;;;;;;;;;;;;;;;;;6240272;22;19919;-87
2022/09/11 15:52:26;;;;;;;;;;;;;;;;;;6263224;22;19923;-85
2022/09/11 15:54:52;;;;;;;;;;;;;;;;;;6257301;22;20593;-86
2022/09/11 15:57:17;;;;;;;;;;;;;;;;;;6255809;22;19919;-86
2022/09/11 15:59:43;;;;;;;;;;;;;;;;;;6256862;22;19925;-85
2022/09/11 16:02:09;;;;;;;;;;;;;;;;;;6261151;22;19954;-86
2022/09/11 16:04:35;;;;;;;;;;;;;;;;;;6260725;22;19923;-85
2022/09/11 16:07:01;;;;;;;;;;;;;;;;;;6261206;22;19926;-85
2022/09/11 16:09:27;;;;;;;;;;;;;;;;;;6234184;22;20245;-86
2022/09/11 16:11:54;;;;;;;;;;;;;;;;;;6255028;22;19918;-85
2022/09/11 16:14:19;;;;;;;;;;;;;;;;;;6258044;22;19962;-85
2022/09/11 16:16:46;;;;;;;;;;;;;;;;;;6230958;22;20773;-85
2022/09/11 16:19:12;;;;;;;;;;;;;;;;;;6261108;22;19922;-85
2022/09/11 16:21:37;;;;;;;;;;;;;;;;;;6230812;22;19925;-86
2022/09/11 16:24:05;;;;;;;;;;;;;;;;;;6262207;22;19918;-85
2022/09/11 16:26:31;;;;;;;;;;;;;;;;;;6256901;22;20376;-86
2022/09/11 16:28:57;;;;;;;;;;;;;;;;;;6263689;22;19926;-86
2022/09/11 16:31:23;;;;;;;;;;;;;;;;;;6259447;22;19923;-86
2022/09/11 16:33:49;;;;;;;;;;;;;;;;;;6256307;22;20534;-86
2022/09/11 16:36:15;;;;;;;;;;;;;;;;;;6262586;22;19929;-86
2022/09/11 16:38:42;;;;;;;;;;;;;;;;;;6256793;22;19919;-86
2022/09/11 16:41:08;;;;;;;;;;;;;;;;;;6259606;22;19915;-85
2022/09/11 16:43:34;;;;;;;;;;;;;;;;;;6231930;22;19918;-85
2022/09/11 16:46:00;;;;;;;;;;;;;;;;;;6233043;22;19915;-85
2022/09/11 16:48:26;;;;;;;;;;;;;;;;;;6236909;22;19941;-86
2022/09/11 16:50:52;;;;;;;;;;;;;;;;;;6259946;22;20328;-86
2022/09/11 16:53:18;;;;;;;;;;;;;;;;;;6264494;22;19922;-86
2022/09/11 16:55:45;;;;;;;;;;;;;;;;;;6259334;22;19918;-85